createdAt,value
2018-07-07T00:03:52.613Z,27.63
2018-07-07T00:08:56.961Z,27.76
2018-07-07T00:14:01.282Z,27.96
2018-07-07T00:19:05.927Z,28.06
2018-07-07T00:24:10.530Z,28.20
2018-07-07T00:29:15.424Z,27.99
2018-07-07T00:34:20.066Z,27.67
2018-07-07T00:39:24.772Z,27.51
2018-07-07T00:44:29.639Z,27.69
2018-07-07T00:49:34.248Z,27.12
2018-07-07T00:54:38.887Z,27.09
2018-07-07T00:59:43.671Z,27.22
2018-07-07T01:04:50.041Z,27.33
2018-07-07T01:09:54.706Z,26.96
2018-07-07T01:14:59.411Z,26.58
2018-07-07T01:20:04.271Z,26.97
2018-07-07T01:25:08.659Z,26.33
2018-07-07T01:30:13.333Z,26.09
2018-07-07T01:35:18.090Z,26.00
2018-07-07T01:40:22.950Z,25.86
2018-07-07T01:45:27.590Z,25.86
2018-07-07T01:50:32.226Z,26.34
2018-07-07T01:55:37.395Z,25.75
2018-07-07T02:00:42.186Z,26.52
2018-07-07T02:05:46.915Z,26.19
2018-07-07T02:10:51.547Z,26.37
2018-07-07T02:15:55.930Z,26.92
2018-07-07T02:21:00.631Z,27.43
2018-07-07T02:26:05.244Z,26.91
2018-07-07T02:31:09.569Z,27.41
2018-07-07T02:36:13.946Z,27.99
2018-07-07T02:41:18.627Z,27.64
2018-07-07T02:46:23.467Z,28.09
2018-07-07T02:51:28.280Z,27.92
2018-07-07T02:56:33.104Z,28.64
2018-07-07T03:01:37.927Z,28.50
2018-07-07T03:06:42.676Z,28.98
2018-07-07T03:11:47.431Z,29.22
2018-07-07T03:16:52.181Z,29.17
2018-07-07T03:21:56.815Z,29.33
2018-07-07T03:27:01.471Z,29.49
2018-07-07T03:32:05.952Z,30.12
2018-07-07T03:37:10.631Z,29.88
2018-07-07T03:42:15.439Z,29.91
2018-07-07T03:47:19.907Z,30.34
2018-07-07T03:52:24.546Z,30.26
2018-07-07T03:57:30.010Z,30.99
2018-07-07T04:02:34.684Z,30.65
2018-07-07T04:07:39.421Z,31.29
2018-07-07T04:12:44.148Z,31.33
2018-07-07T04:17:48.530Z,31.22
2018-07-07T04:22:53.339Z,31.74
2018-07-07T04:27:58.009Z,31.75
2018-07-07T04:33:02.689Z,31.83
2018-07-07T04:38:13.860Z,31.82
2018-07-07T04:43:19.332Z,31.73
2018-07-07T04:48:23.931Z,31.94
2018-07-07T04:53:28.540Z,32.47
2018-07-07T04:58:33.163Z,32.56
2018-07-07T05:03:37.805Z,32.62
2018-07-07T05:08:42.519Z,32.51
2018-07-07T05:13:47.380Z,33.03
2018-07-07T05:18:52.050Z,32.58
2018-07-07T05:23:56.775Z,33.16
2018-07-07T05:29:01.446Z,33.12
2018-07-07T05:34:06.408Z,32.77
2018-07-07T05:39:11.065Z,32.88
2018-07-07T05:44:15.813Z,33.62
2018-07-07T05:49:20.431Z,33.59
2018-07-07T05:54:24.995Z,33.76
2018-07-07T05:59:29.924Z,33.76
2018-07-07T06:04:34.330Z,33.41
2018-07-07T06:09:38.885Z,33.81
2018-07-07T06:14:43.225Z,33.59
2018-07-07T06:19:47.851Z,33.92
2018-07-07T06:24:53.331Z,33.55
2018-07-07T06:29:57.800Z,33.96
2018-07-07T06:35:02.599Z,34.05
2018-07-07T06:40:08.858Z,35.18
2018-07-07T06:45:13.585Z,35.19
2018-07-07T06:50:18.266Z,34.62
2018-07-07T06:55:22.854Z,34.70
2018-07-07T07:00:27.529Z,34.71
2018-07-07T07:05:32.087Z,35.51
2018-07-07T07:10:36.731Z,34.53
2018-07-07T07:15:41.304Z,34.70
2018-07-07T07:20:46.139Z,33.40
2018-07-07T07:25:51.060Z,33.85
2018-07-07T07:30:55.921Z,33.49
2018-07-07T07:36:05.358Z,33.61
2018-07-07T07:41:10.428Z,33.00
2018-07-07T07:46:14.893Z,32.44
2018-07-07T07:51:18.572Z,34.21
2018-07-07T07:56:22.318Z,33.50
2018-07-07T08:01:26.054Z,33.60
2018-07-07T08:06:29.474Z,33.84
2018-07-07T08:11:32.938Z,32.65
2018-07-07T08:16:36.386Z,31.85
2018-07-07T08:21:39.912Z,32.69
2018-07-07T08:26:43.368Z,32.87
2018-07-07T08:31:46.970Z,32.96
2018-07-07T08:36:50.429Z,32.38
2018-07-07T08:41:54.171Z,32.25
2018-07-07T08:46:57.794Z,32.04
2018-07-07T08:52:01.412Z,32.07
2018-07-07T08:57:05.343Z,31.48
2018-07-07T09:02:09.060Z,31.27
2018-07-07T09:07:12.802Z,30.91
2018-07-07T09:12:16.341Z,30.94
2018-07-07T09:17:19.830Z,30.94
2018-07-07T09:22:23.288Z,31.47
2018-07-07T09:27:26.707Z,30.92
2018-07-07T09:32:30.283Z,30.57
2018-07-07T09:37:33.693Z,30.69
2018-07-07T09:42:37.146Z,29.34
2018-07-07T09:47:40.738Z,29.47
2018-07-07T09:52:44.395Z,29.42
2018-07-07T09:57:47.861Z,30.02
2018-07-07T10:02:52.021Z,29.68
2018-07-07T10:07:55.390Z,29.80
2018-07-07T10:12:58.851Z,30.60
2018-07-07T10:18:02.297Z,30.73
2018-07-07T10:23:05.751Z,31.21
2018-07-07T10:28:09.229Z,30.92
2018-07-07T10:33:12.738Z,31.98
2018-07-07T10:38:16.221Z,32.82
2018-07-07T10:43:19.972Z,32.02
2018-07-07T10:48:23.542Z,31.69
2018-07-07T10:53:26.996Z,32.68
2018-07-07T10:58:30.422Z,32.57
2018-07-07T11:03:33.893Z,32.85
2018-07-07T11:08:37.587Z,32.96
2018-07-07T11:13:41.048Z,32.87
2018-07-07T11:18:44.781Z,32.87
2018-07-07T11:23:48.197Z,31.69
2018-07-07T11:28:51.800Z,31.98
2018-07-07T11:33:55.322Z,32.13
2018-07-07T11:38:58.946Z,31.91
2018-07-07T11:44:02.389Z,32.21
2018-07-07T11:49:06.083Z,32.84
2018-07-07T11:54:09.607Z,32.88
2018-07-07T11:59:13.314Z,32.95
2018-07-07T12:04:16.780Z,33.42
2018-07-07T12:09:20.319Z,33.82
2018-07-07T12:14:23.788Z,33.37
2018-07-07T12:19:27.575Z,33.61
2018-07-07T12:24:31.254Z,33.73
2018-07-07T12:29:34.713Z,33.94
2018-07-07T12:34:38.333Z,34.35
2018-07-07T12:39:41.775Z,35.33
2018-07-07T12:44:45.905Z,34.69
2018-07-07T12:49:49.762Z,35.13
2018-07-07T12:54:53.285Z,34.79
2018-07-07T12:59:56.740Z,34.95
2018-07-07T13:05:00.439Z,34.74
2018-07-07T13:10:04.271Z,34.59
2018-07-07T13:15:08.042Z,34.55
2018-07-07T13:20:11.833Z,34.53
2018-07-07T13:25:15.427Z,34.57
2018-07-07T13:30:19.418Z,34.47
2018-07-07T13:35:22.877Z,35.26
2018-07-07T13:40:31.679Z,35.33
2018-07-07T13:45:38.024Z,35.49
2018-07-07T13:50:44.045Z,35.43
2018-07-07T13:55:47.647Z,35.19
2018-07-07T14:00:51.185Z,35.99
2018-07-07T14:05:54.629Z,35.83
2018-07-07T14:10:58.102Z,35.92
2018-07-07T14:16:01.542Z,35.15
2018-07-07T14:21:05.134Z,35.09
2018-07-07T14:26:08.861Z,35.37
2018-07-07T14:31:12.785Z,35.18
2018-07-07T14:36:16.342Z,35.83
2018-07-07T14:41:21.370Z,36.00
2018-07-07T14:46:25.574Z,35.58
2018-07-07T14:51:28.993Z,34.82
2018-07-07T14:56:32.418Z,34.83
2018-07-07T15:01:36.039Z,35.20
2018-07-07T15:06:39.455Z,34.61
2018-07-07T15:11:42.921Z,35.65
2018-07-07T15:16:46.398Z,35.52
2018-07-07T15:21:49.861Z,34.45
2018-07-07T15:26:53.317Z,35.27
2018-07-07T15:31:56.921Z,34.23
2018-07-07T15:37:00.333Z,34.10
2018-07-07T15:42:04.140Z,34.26
2018-07-07T15:47:07.654Z,34.11
2018-07-07T15:52:11.307Z,35.03
2018-07-07T15:57:15.157Z,33.62
2018-07-07T16:02:18.659Z,33.77
2018-07-07T16:07:22.107Z,33.98
2018-07-07T16:12:25.757Z,34.11
2018-07-07T16:17:29.228Z,34.10
2018-07-07T16:22:33.007Z,34.46
2018-07-07T16:27:36.515Z,34.59
2018-07-07T16:32:40.041Z,34.61
2018-07-07T16:37:43.634Z,34.58
2018-07-07T16:42:47.282Z,34.75
2018-07-07T16:47:51.092Z,35.79
2018-07-07T16:52:54.756Z,35.73
2018-07-07T16:57:58.345Z,35.55
2018-07-07T17:03:02.011Z,35.57
2018-07-07T17:08:05.770Z,35.51
2018-07-07T17:13:09.193Z,35.42
2018-07-07T17:18:12.653Z,34.82
2018-07-07T17:23:16.322Z,34.52
2018-07-07T17:28:20.119Z,34.44
2018-07-07T17:33:23.877Z,34.92
2018-07-07T17:38:28.489Z,34.45
2018-07-07T17:43:32.034Z,34.37
2018-07-07T17:48:35.945Z,34.10
2018-07-07T17:53:39.768Z,34.03
2018-07-07T17:58:43.330Z,34.77
2018-07-07T18:03:46.883Z,34.71
2018-07-07T18:08:50.622Z,35.10
2018-07-07T18:13:54.145Z,34.53
2018-07-07T18:18:57.681Z,33.84
2018-07-07T18:24:01.433Z,33.78
2018-07-07T18:29:05.706Z,33.96
2018-07-07T18:34:10.302Z,32.97
2018-07-07T18:39:14.771Z,33.45
2018-07-07T18:44:18.609Z,32.83
2018-07-07T18:49:21.997Z,33.46
2018-07-07T18:54:25.536Z,32.98
2018-07-07T18:59:29.139Z,33.47
2018-07-07T19:04:32.821Z,33.41
2018-07-07T19:09:36.232Z,32.84
2018-07-07T19:14:39.699Z,32.82
2018-07-07T19:19:43.989Z,32.22
2018-07-07T19:24:52.671Z,32.02
2018-07-07T19:29:56.654Z,32.55
2018-07-07T19:37:08.155Z,32.25
2018-07-07T19:42:11.812Z,32.01
2018-07-07T19:47:15.510Z,32.18
2018-07-07T19:52:19.375Z,33.17
2018-07-07T19:57:22.993Z,32.94
2018-07-07T20:02:26.639Z,32.57
2018-07-07T20:07:30.123Z,32.65
2018-07-07T20:12:33.641Z,32.38
2018-07-07T20:18:06.826Z,32.92
2018-07-07T20:23:15.010Z,32.82
2018-07-07T20:28:24.060Z,32.63
2018-07-07T20:33:37.073Z,33.18
2018-07-07T20:38:40.513Z,33.66
2018-07-07T20:43:44.101Z,33.72
2018-07-07T20:48:47.601Z,33.48
2018-07-07T20:53:51.089Z,33.08
2018-07-07T20:58:54.482Z,33.34
2018-07-07T21:03:58.686Z,32.87
2018-07-07T21:09:02.531Z,33.59
2018-07-07T21:14:07.026Z,33.17
2018-07-07T21:19:10.572Z,33.76
2018-07-07T21:24:14.652Z,33.29
2018-07-07T21:29:19.004Z,33.37
2018-07-07T21:34:22.897Z,33.04
2018-07-07T21:39:26.548Z,33.74
2018-07-07T21:44:30.066Z,33.76
2018-07-07T21:49:33.685Z,33.72
2018-07-07T21:54:37.410Z,33.39
2018-07-07T21:59:40.918Z,33.54
2018-07-07T22:04:50.071Z,33.25
2018-07-07T22:09:53.517Z,34.23
2018-07-07T22:14:57.399Z,34.22
2018-07-07T22:20:00.850Z,33.98
2018-07-07T22:25:04.469Z,33.42
2018-07-07T22:30:07.940Z,33.81
2018-07-07T22:35:16.879Z,33.39
2018-07-07T22:40:20.363Z,33.46
2018-07-07T22:45:23.874Z,33.27
2018-07-07T22:50:27.535Z,33.47
2018-07-07T22:55:31.066Z,33.44
2018-07-07T23:00:35.889Z,33.37
2018-07-07T23:05:39.539Z,33.70
2018-07-07T23:10:43.022Z,33.94
2018-07-07T23:15:46.527Z,33.61
2018-07-07T23:20:50.047Z,33.88
2018-07-07T23:25:53.547Z,33.40
2018-07-07T23:30:57.199Z,33.61
2018-07-07T23:36:00.822Z,33.47
2018-07-07T23:41:04.624Z,33.83
2018-07-07T23:46:08.481Z,33.41
2018-07-07T23:51:11.979Z,33.47
2018-07-07T23:56:15.701Z,33.98
